sensor_id;sensor_type;location;lat;lon;timestamp;pressure;altitude;pressure_sealevel;temperature;humidity
44992;BME280;56865;51.618;7.406;2022-09-09T00:00:46;100083.66;;;24.01;100.00
44992;BME280;56865;51.618;7.406;2022-09-09T00:03:21;100073.19;;;24.03;100.00
44992;BME280;56865;51.618;7.406;2022-09-09T00:05:55;100078.63;;;23.97;100.00
44992;BME280;56865;51.618;7.406;2022-09-09T00:08:31;100085.91;;;23.87;100.00
44992;BME280;56865;51.618;7.406;2022-09-09T00:11:07;100076.00;;;23.73;100.00
44992;BME280;56865;51.618;7.406;2022-09-09T00:13:41;100067.13;;;23.79;100.00
44992;BME280;56865;51.618;7.406;2022-09-09T00:16:17;100077.13;;;23.91;100.00
44992;BME280;56865;51.618;7.406;2022-09-09T00:18:55;100066.44;;;23.97;100.00
44992;BME280;56865;51.618;7.406;2022-09-09T00:21:31;100076.75;;;24.00;100.00
44992;BME280;56865;51.618;7.406;2022-09-09T00:24:09;100069.97;;;23.73;100.00
44992;BME280;56865;51.618;7.406;2022-09-09T00:26:41;100074.81;;;23.82;100.00
44992;BME280;56865;51.618;7.406;2022-09-09T00:29:14;100077.97;;;23.92;100.00
44992;BME280;56865;51.618;7.406;2022-09-09T00:31:48;100076.22;;;23.91;100.00
44992;BME280;56865;51.618;7.406;2022-09-09T00:34:23;100074.59;;;23.88;100.00
44992;BME280;56865;51.618;7.406;2022-09-09T00:36:54;100068.72;;;23.83;100.00
44992;BME280;56865;51.618;7.406;2022-09-09T00:39:27;100059.44;;;23.76;100.00
44992;BME280;56865;51.618;7.406;2022-09-09T00:42:04;100056.06;;;23.74;100.00
44992;BME280;56865;51.618;7.406;2022-09-09T00:44:44;100053.44;;;23.74;100.00
44992;BME280;56865;51.618;7.406;2022-09-09T00:50:12;100057.28;;;23.63;100.00
44992;BME280;56865;51.618;7.406;2022-09-09T00:52:50;100049.47;;;23.63;100.00
44992;BME280;56865;51.618;7.406;2022-09-09T00:55:28;100052.72;;;23.70;100.00
44992;BME280;56865;51.618;7.406;2022-09-09T00:58:06;100065.88;;;23.65;100.00
44992;BME280;56865;51.618;7.406;2022-09-09T01:00:39;100064.63;;;23.52;100.00
44992;BME280;56865;51.618;7.406;2022-09-09T01:03:21;100067.72;;;23.38;100.00
44992;BME280;56865;51.618;7.406;2022-09-09T01:06:02;100068.16;;;23.51;100.00
44992;BME280;56865;51.618;7.406;2022-09-09T01:08:41;100063.16;;;23.45;100.00
44992;BME280;56865;51.618;7.406;2022-09-09T01:11:16;100058.97;;;23.41;100.00
44992;BME280;56865;51.618;7.406;2022-09-09T01:13:52;100053.97;;;23.34;100.00
44992;BME280;56865;51.618;7.406;2022-09-09T01:16:24;100052.47;;;23.29;100.00
44992;BME280;56865;51.618;7.406;2022-09-09T01:18:55;100058.06;;;23.42;100.00
44992;BME280;56865;51.618;7.406;2022-09-09T01:21:33;100052.03;;;23.41;100.00
44992;BME280;56865;51.618;7.406;2022-09-09T01:24:12;100054.22;;;23.52;100.00
44992;BME280;56865;51.618;7.406;2022-09-09T01:26:47;100048.47;;;23.44;100.00
44992;BME280;56865;51.618;7.406;2022-09-09T01:29:18;100057.44;;;23.35;100.00
44992;BME280;56865;51.618;7.406;2022-09-09T01:31:53;100057.78;;;23.49;100.00
44992;BME280;56865;51.618;7.406;2022-09-09T01:34:25;100061.31;;;23.48;100.00
44992;BME280;56865;51.618;7.406;2022-09-09T01:36:57;100063.84;;;23.50;100.00
44992;BME280;56865;51.618;7.406;2022-09-09T01:39:27;100051.84;;;23.46;100.00
44992;BME280;56865;51.618;7.406;2022-09-09T01:42:01;100056.13;;;23.47;100.00
44992;BME280;56865;51.618;7.406;2022-09-09T01:44:32;100053.06;;;23.35;100.00
44992;BME280;56865;51.618;7.406;2022-09-09T01:47:02;100047.78;;;23.39;100.00
44992;BME280;56865;51.618;7.406;2022-09-09T01:49:33;100048.91;;;23.55;100.00
44992;BME280;56865;51.618;7.406;2022-09-09T01:52:03;100047.03;;;23.35;100.00
44992;BME280;56865;51.618;7.406;2022-09-09T01:54:35;100041.72;;;23.38;100.00
44992;BME280;56865;51.618;7.406;2022-09-09T01:57:10;100054.69;;;23.40;100.00
44992;BME280;56865;51.618;7.406;2022-09-09T01:59:56;100054.94;;;23.32;100.00
44992;BME280;56865;51.618;7.406;2022-09-09T02:02:32;100050.47;;;23.35;100.00
44992;BME280;56865;51.618;7.406;2022-09-09T02:05:08;100052.03;;;23.41;100.00
44992;BME280;56865;51.618;7.406;2022-09-09T02:07:42;100054.69;;;23.40;100.00
44992;BME280;56865;51.618;7.406;2022-09-09T02:10:17;100051.03;;;23.20;100.00
44992;BME280;56865;51.618;7.406;2022-09-09T02:12:53;100047.66;;;23.42;100.00
44992;BME280;56865;51.618;7.406;2022-09-09T02:15:27;100048.41;;;23.45;100.00
44992;BME280;56865;51.618;7.406;2022-09-09T02:17:58;100047.34;;;23.51;100.00
44992;BME280;56865;51.618;7.406;2022-09-09T02:20:30;100050.78;;;23.51;100.00
44992;BME280;56865;51.618;7.406;2022-09-09T02:23:00;100052.75;;;23.45;100.00
44992;BME280;56865;51.618;7.406;2022-09-09T02:25:30;100057.09;;;23.44;100.00
44992;BME280;56865;51.618;7.406;2022-09-09T02:28:05;100051.63;;;23.52;100.00
44992;BME280;56865;51.618;7.406;2022-09-09T02:30:36;100048.78;;;23.34;100.00
44992;BME280;56865;51.618;7.406;2022-09-09T02:33:07;100052.31;;;23.57;100.00
44992;BME280;56865;51.618;7.406;2022-09-09T02:35:39;100050.63;;;23.56;100.00
44992;BME280;56865;51.618;7.406;2022-09-09T02:38:10;100054.78;;;23.60;100.00
44992;BME280;56865;51.618;7.406;2022-09-09T02:40:41;100048.13;;;23.53;100.00
44992;BME280;56865;51.618;7.406;2022-09-09T02:43:16;100058.28;;;23.35;100.00
44992;BME280;56865;51.618;7.406;2022-09-09T02:45:47;100050.97;;;23.21;100.00
44992;BME280;56865;51.618;7.406;2022-09-09T02:48:21;100064.22;;;23.39;100.00
44992;BME280;56865;51.618;7.406;2022-09-09T02:50:57;100061.22;;;23.26;100.00
44992;BME280;56865;51.618;7.406;2022-09-09T02:53:31;100056.31;;;23.42;100.00
44992;BME280;56865;51.618;7.406;2022-09-09T02:56:03;100053.97;;;23.34;100.00
44992;BME280;56865;51.618;7.406;2022-09-09T02:58:36;100056.47;;;23.37;100.00
44992;BME280;56865;51.618;7.406;2022-09-09T03:01:05;100056.19;;;23.45;100.00
44992;BME280;56865;51.618;7.406;2022-09-09T03:03:35;100059.41;;;23.52;100.00
44992;BME280;56865;51.618;7.406;2022-09-09T03:06:05;100060.78;;;23.39;100.00
44992;BME280;56865;51.618;7.406;2022-09-09T03:08:34;100065.94;;;23.40;100.00
44992;BME280;56865;51.618;7.406;2022-09-09T03:11:04;100062.00;;;23.53;100.00
44992;BME280;56865;51.618;7.406;2022-09-09T03:13:36;100057.69;;;23.52;100.00
44992;BME280;56865;51.618;7.406;2022-09-09T03:16:06;100060.16;;;23.56;100.00
44992;BME280;56865;51.618;7.406;2022-09-09T03:18:35;100047.56;;;23.45;100.00
44992;BME280;56865;51.618;7.406;2022-09-09T03:21:05;100044.63;;;23.54;100.00
44992;BME280;56865;51.618;7.406;2022-09-09T03:23:35;100046.53;;;23.73;100.00
44992;BME280;56865;51.618;7.406;2022-09-09T03:26:05;100048.91;;;23.79;100.00
44992;BME280;56865;51.618;7.406;2022-09-09T03:28:37;100045.06;;;23.65;100.00
44992;BME280;56865;51.618;7.406;2022-09-09T03:31:06;100037.75;;;23.75;100.00
44992;BME280;56865;51.618;7.406;2022-09-09T03:33:37;100039.75;;;23.45;100.00
44992;BME280;56865;51.618;7.406;2022-09-09T03:36:07;100036.59;;;23.60;100.00
44992;BME280;56865;51.618;7.406;2022-09-09T03:38:37;100038.06;;;23.67;100.00
44992;BME280;56865;51.618;7.406;2022-09-09T03:41:07;100035.63;;;23.63;100.00
44992;BME280;56865;51.618;7.406;2022-09-09T03:43:39;100036.41;;;23.65;100.00
44992;BME280;56865;51.618;7.406;2022-09-09T03:46:09;100037.09;;;23.70;100.00
44992;BME280;56865;51.618;7.406;2022-09-09T03:48:38;100032.41;;;23.56;100.00
44992;BME280;56865;51.618;7.406;2022-09-09T03:51:08;100039.41;;;23.78;100.00
44992;BME280;56865;51.618;7.406;2022-09-09T03:53:42;100035.50;;;23.66;100.00
44992;BME280;56865;51.618;7.406;2022-09-09T03:56:11;100037.84;;;23.74;100.00
44992;BME280;56865;51.618;7.406;2022-09-09T03:58:44;100035.69;;;23.61;100.00
44992;BME280;56865;51.618;7.406;2022-09-09T04:01:13;100039.41;;;23.54;100.00
44992;BME280;56865;51.618;7.406;2022-09-09T04:03:44;100036.34;;;23.66;100.00
44992;BME280;56865;51.618;7.406;2022-09-09T04:06:14;100040.88;;;23.37;100.00
44992;BME280;56865;51.618;7.406;2022-09-09T04:08:44;100037.31;;;23.64;100.00
44992;BME280;56865;51.618;7.406;2022-09-09T04:11:15;100040.88;;;23.61;100.00
44992;BME280;56865;51.618;7.406;2022-09-09T04:13:47;100038.84;;;23.69;100.00
44992;BME280;56865;51.618;7.406;2022-09-09T04:16:17;100046.88;;;23.63;100.00
44992;BME280;56865;51.618;7.406;2022-09-09T04:18:46;100051.44;;;23.57;100.00
44992;BME280;56865;51.618;7.406;2022-09-09T04:21:16;100045.19;;;23.62;100.00
44992;BME280;56865;51.618;7.406;2022-09-09T04:23:45;100049.28;;;23.44;100.00
44992;BME280;56865;51.618;7.406;2022-09-09T04:26:15;100060.06;;;23.59;100.00
44992;BME280;56865;51.618;7.406;2022-09-09T04:28:47;100052.66;;;23.72;100.00
44992;BME280;56865;51.618;7.406;2022-09-09T04:31:17;100052.31;;;23.57;100.00
44992;BME280;56865;51.618;7.406;2022-09-09T04:33:49;100054.41;;;23.71;100.00
44992;BME280;56865;51.618;7.406;2022-09-09T04:36:19;100054.50;;;23.68;100.00
44992;BME280;56865;51.618;7.406;2022-09-09T04:38:48;100054.50;;;23.68;100.00
44992;BME280;56865;51.618;7.406;2022-09-09T04:41:18;100056.03;;;23.50;100.00
44992;BME280;56865;51.618;7.406;2022-09-09T04:43:50;100056.66;;;23.57;100.00
44992;BME280;56865;51.618;7.406;2022-09-09T04:46:19;100053.50;;;23.48;100.00
44992;BME280;56865;51.618;7.406;2022-09-09T04:48:50;100060.97;;;23.58;100.00
44992;BME280;56865;51.618;7.406;2022-09-09T04:51:20;100055.91;;;23.29;100.00
44992;BME280;56865;51.618;7.406;2022-09-09T04:53:49;100052.19;;;23.60;100.00
44992;BME280;56865;51.618;7.406;2022-09-09T04:56:20;100047.66;;;23.42;100.00
44992;BME280;56865;51.618;7.406;2022-09-09T04:58:52;100053.31;;;23.53;100.00
44992;BME280;56865;51.618;7.406;2022-09-09T05:01:22;100046.88;;;23.63;100.00
44992;BME280;56865;51.618;7.406;2022-09-09T05:03:54;100051.13;;;23.42;100.00
44992;BME280;56865;51.618;7.406;2022-09-09T05:06:24;100048.31;;;23.23;100.00
44992;BME280;56865;51.618;7.406;2022-09-09T05:08:53;100051.00;;;23.69;100.00
44992;BME280;56865;51.618;7.406;2022-09-09T05:11:25;100048.56;;;23.64;100.00
44992;BME280;56865;51.618;7.406;2022-09-09T05:13:57;100050.94;;;23.47;100.00
44992;BME280;56865;51.618;7.406;2022-09-09T05:16:27;100052.81;;;23.67;100.00
44992;BME280;56865;51.618;7.406;2022-09-09T05:18:57;100059.38;;;23.77;100.00
44992;BME280;56865;51.618;7.406;2022-09-09T05:21:26;100058.91;;;23.66;100.00
44992;BME280;56865;51.618;7.406;2022-09-09T05:23:57;100058.69;;;23.72;100.00
44992;BME280;56865;51.618;7.406;2022-09-09T05:26:26;100055.03;;;23.78;100.00
44992;BME280;56865;51.618;7.406;2022-09-09T05:28:59;100055.84;;;23.78;100.00
44992;BME280;56865;51.618;7.406;2022-09-09T05:31:29;100054.66;;;23.87;100.00
44992;BME280;56865;51.618;7.406;2022-09-09T05:33:59;100051.84;;;23.93;100.00
44992;BME280;56865;51.618;7.406;2022-09-09T05:36:28;100059.66;;;23.93;100.00
44992;BME280;56865;51.618;7.406;2022-09-09T05:38:58;100050.19;;;23.67;100.00
44992;BME280;56865;51.618;7.406;2022-09-09T05:41:28;100044.84;;;23.72;100.00
44992;BME280;56865;51.618;7.406;2022-09-09T05:44:00;100047.94;;;23.81;100.00
44992;BME280;56865;51.618;7.406;2022-09-09T05:46:30;100054.63;;;23.89;100.00
44992;BME280;56865;51.618;7.406;2022-09-09T05:49:00;100052.06;;;23.87;100.00
44992;BME280;56865;51.618;7.406;2022-09-09T05:51:31;100054.19;;;23.77;100.00
44992;BME280;56865;51.618;7.406;2022-09-09T05:54:01;100052.41;;;23.78;100.00
44992;BME280;56865;51.618;7.406;2022-09-09T05:56:31;100057.88;;;23.95;100.00
44992;BME280;56865;51.618;7.406;2022-09-09T05:59:03;100051.38;;;23.82;100.00
44992;BME280;56865;51.618;7.406;2022-09-09T06:01:34;100052.03;;;23.89;100.00
44992;BME280;56865;51.618;7.406;2022-09-09T06:04:07;100050.16;;;23.92;100.00
44992;BME280;56865;51.618;7.406;2022-09-09T06:06:37;100049.97;;;23.49;100.00
44992;BME280;56865;51.618;7.406;2022-09-09T06:09:08;100050.88;;;23.72;100.00
44992;BME280;56865;51.618;7.406;2022-09-09T06:11:40;100052.19;;;23.60;100.00
44992;BME280;56865;51.618;7.406;2022-09-09T06:14:12;100056.06;;;23.74;100.00
44992;BME280;56865;51.618;7.406;2022-09-09T06:16:43;100057.13;;;23.92;100.00
44992;BME280;56865;51.618;7.406;2022-09-09T06:19:14;100053.69;;;23.91;100.00
44992;BME280;56865;51.618;7.406;2022-09-09T06:21:44;100054.81;;;24.06;100.00
44992;BME280;56865;51.618;7.406;2022-09-09T06:24:14;100058.00;;;24.14;100.00
44992;BME280;56865;51.618;7.406;2022-09-09T06:26:45;100058.22;;;24.08;100.00
44992;BME280;56865;51.618;7.406;2022-09-09T06:29:17;100059.19;;;24.06;100.00
44992;BME280;56865;51.618;7.406;2022-09-09T06:31:50;100062.16;;;24.18;100.00
44992;BME280;56865;51.618;7.406;2022-09-09T06:34:19;100061.44;;;24.15;100.00
44992;BME280;56865;51.618;7.406;2022-09-09T06:36:49;100065.38;;;24.03;100.00
44992;BME280;56865;51.618;7.406;2022-09-09T06:39:19;100067.31;;;24.42;100.00
44992;BME280;56865;51.618;7.406;2022-09-09T06:41:48;100069.00;;;24.21;100.00
44992;BME280;56865;51.618;7.406;2022-09-09T06:44:22;100068.03;;;24.24;100.00
44992;BME280;56865;51.618;7.406;2022-09-09T06:46:56;100067.13;;;24.25;100.00
44992;BME280;56865;51.618;7.406;2022-09-09T06:49:26;100068.66;;;24.30;100.00
44992;BME280;56865;51.618;7.406;2022-09-09T06:51:55;100068.88;;;24.46;100.00
44992;BME280;56865;51.618;7.406;2022-09-09T06:54:25;100067.38;;;24.41;100.00
44992;BME280;56865;51.618;7.406;2022-09-09T06:56:55;100065.75;;;24.38;100.00
44992;BME280;56865;51.618;7.406;2022-09-09T06:59:39;100066.59;;;24.16;100.00
44992;BME280;56865;51.618;7.406;2022-09-09T07:02:08;100073.59;;;24.59;100.00
44992;BME280;56865;51.618;7.406;2022-09-09T07:04:38;100070.28;;;24.55;100.00
44992;BME280;56865;51.618;7.406;2022-09-09T07:07:08;100076.97;;;24.40;100.00
44992;BME280;56865;51.618;7.406;2022-09-09T07:09:40;100074.66;;;24.55;100.00
44992;BME280;56865;51.618;7.406;2022-09-09T07:12:09;100081.22;;;24.43;100.00
44992;BME280;56865;51.618;7.406;2022-09-09T07:14:41;100077.78;;;24.64;100.00
44992;BME280;56865;51.618;7.406;2022-09-09T07:17:11;100075.44;;;24.57;100.00
44992;BME280;56865;51.618;7.406;2022-09-09T07:19:40;100081.88;;;24.48;100.00
44992;BME280;56865;51.618;7.406;2022-09-09T07:22:10;100086.72;;;24.79;100.00
44992;BME280;56865;51.618;7.406;2022-09-09T07:24:40;100077.44;;;24.50;100.00
44992;BME280;56865;51.618;7.406;2022-09-09T07:27:11;100084.53;;;24.69;100.00
44992;BME280;56865;51.618;7.406;2022-09-09T07:29:43;100085.63;;;24.63;100.00
44992;BME280;56865;51.618;7.406;2022-09-09T07:32:13;100086.75;;;24.78;100.00
44992;BME280;56865;51.618;7.406;2022-09-09T07:34:44;100083.94;;;25.05;100.00
44992;BME280;56865;51.618;7.406;2022-09-09T07:37:13;100089.84;;;24.88;100.00
44992;BME280;56865;51.618;7.406;2022-09-09T07:39:43;100084.84;;;25.04;100.00
44992;BME280;56865;51.618;7.406;2022-09-09T07:42:13;100093.50;;;25.25;100.00
44992;BME280;56865;51.618;7.406;2022-09-09T07:44:45;100092.72;;;25.23;100.00
44992;BME280;56865;51.618;7.406;2022-09-09T07:47:14;100106.13;;;24.93;100.00
44992;BME280;56865;51.618;7.406;2022-09-09T07:49:44;100096.03;;;25.47;100.00
44992;BME280;56865;51.618;7.406;2022-09-09T07:52:16;100099.56;;;25.25;100.00
44992;BME280;56865;51.618;7.406;2022-09-09T07:54:47;100095.81;;;25.72;100.00
44992;BME280;56865;51.618;7.406;2022-09-09T07:57:16;100095.31;;;25.83;100.00
44992;BME280;56865;51.618;7.406;2022-09-09T07:59:48;100100.31;;;25.69;100.00
44992;BME280;56865;51.618;7.406;2022-09-09T08:02:18;100102.97;;;25.48;100.00
44992;BME280;56865;51.618;7.406;2022-09-09T08:04:48;100101.25;;;25.87;100.00
44992;BME280;56865;51.618;7.406;2022-09-09T08:07:18;100100.06;;;25.94;100.00
44992;BME280;56865;51.618;7.406;2022-09-09T08:09:47;100095.13;;;25.48;100.00
44992;BME280;56865;51.618;7.406;2022-09-09T08:12:17;100102.22;;;26.03;100.00
44992;BME280;56865;51.618;7.406;2022-09-09T08:14:49;100102.16;;;25.86;100.00
44992;BME280;56865;51.618;7.406;2022-09-09T08:17:21;100106.63;;;26.03;100.00
44992;BME280;56865;51.618;7.406;2022-09-09T08:19:50;100113.03;;;25.95;100.00
44992;BME280;56865;51.618;7.406;2022-09-09T08:22:20;100108.03;;;26.10;96.01
44992;BME280;56865;51.618;7.406;2022-09-09T08:24:50;100108.03;;;26.10;96.95
44992;BME280;56865;51.618;7.406;2022-09-09T08:27:20;100103.09;;;26.23;98.07
44992;BME280;56865;51.618;7.406;2022-09-09T08:29:53;100105.47;;;25.89;96.53
44992;BME280;56865;51.618;7.406;2022-09-09T08:32:23;100099.53;;;26.06;97.03
44992;BME280;56865;51.618;7.406;2022-09-09T08:34:52;100102.66;;;26.32;95.41
44992;BME280;56865;51.618;7.406;2022-09-09T08:37:26;100102.91;;;26.45;93.35
44992;BME280;56865;51.618;7.406;2022-09-09T08:39:56;100106.69;;;26.76;90.75
44992;BME280;56865;51.618;7.406;2022-09-09T08:42:31;100110.09;;;26.59;90.42
44992;BME280;56865;51.618;7.406;2022-09-09T08:45:18;100110.41;;;27.07;90.37
44992;BME280;56865;51.618;7.406;2022-09-09T08:47:55;100106.09;;;26.88;87.21
44992;BME280;56865;51.618;7.406;2022-09-09T08:50:26;100123.31;;;26.92;87.01
44992;BME280;56865;51.618;7.406;2022-09-09T08:53:00;100113.06;;;26.88;87.00
44992;BME280;56865;51.618;7.406;2022-09-09T08:55:39;100125.31;;;26.87;86.92
44992;BME280;56865;51.618;7.406;2022-09-09T08:58:12;100127.72;;;26.92;86.45
44992;BME280;56865;51.618;7.406;2022-09-09T09:00:47;100120.69;;;27.10;83.62
44992;BME280;56865;51.618;7.406;2022-09-09T09:03:22;100112.53;;;27.16;85.49
44992;BME280;56865;51.618;7.406;2022-09-09T09:05:59;100115.28;;;27.48;84.08
44992;BME280;56865;51.618;7.406;2022-09-09T09:08:33;100117.97;;;27.29;81.98
44992;BME280;56865;51.618;7.406;2022-09-09T09:11:08;100121.16;;;27.18;80.43
44992;BME280;56865;51.618;7.406;2022-09-09T09:13:38;100122.22;;;27.32;78.72
44992;BME280;56865;51.618;7.406;2022-09-09T09:16:14;100132.16;;;27.43;79.13
44992;BME280;56865;51.618;7.406;2022-09-09T09:18:46;100126.94;;;27.43;80.06
44992;BME280;56865;51.618;7.406;2022-09-09T09:21:19;100123.84;;;27.17;79.99
44992;BME280;56865;51.618;7.406;2022-09-09T09:23:53;100121.06;;;27.20;80.87
44992;BME280;56865;51.618;7.406;2022-09-09T09:26:25;100122.38;;;27.46;79.17
44992;BME280;56865;51.618;7.406;2022-09-09T09:28:58;100116.22;;;27.30;79.72
44992;BME280;56865;51.618;7.406;2022-09-09T09:31:32;100124.69;;;27.17;79.85
44992;BME280;56865;51.618;7.406;2022-09-09T09:34:01;100108.13;;;27.34;79.50
44992;BME280;56865;51.618;7.406;2022-09-09T09:36:34;100108.38;;;27.47;79.18
44992;BME280;56865;51.618;7.406;2022-09-09T09:39:04;100112.47;;;27.69;78.47
44992;BME280;56865;51.618;7.406;2022-09-09T09:41:55;100109.84;;;27.69;79.25
44992;BME280;56865;51.618;7.406;2022-09-09T09:44:32;100102.16;;;27.66;78.30
44992;BME280;56865;51.618;7.406;2022-09-09T09:47:10;100117.16;;;27.46;77.69
44992;BME280;56865;51.618;7.406;2022-09-09T09:49:50;100111.69;;;27.33;78.71
44992;BME280;56865;51.618;7.406;2022-09-09T09:52:22;100111.63;;;27.00;78.36
44992;BME280;56865;51.618;7.406;2022-09-09T09:54:52;100122.41;;;27.11;78.56
44992;BME280;56865;51.618;7.406;2022-09-09T09:57:23;100121.38;;;27.14;78.14
44992;BME280;56865;51.618;7.406;2022-09-09T10:00:04;100119.75;;;27.29;77.28
44992;BME280;56865;51.618;7.406;2022-09-09T10:02:39;100129.63;;;27.41;76.72
44992;BME280;56865;51.618;7.406;2022-09-09T10:05:12;100113.88;;;27.59;75.89
44992;BME280;56865;51.618;7.406;2022-09-09T10:07:43;100116.69;;;27.20;77.87
44992;BME280;56865;51.618;7.406;2022-09-09T10:10:14;100126.41;;;27.18;75.84
44992;BME280;56865;51.618;7.406;2022-09-09T10:12:48;100118.53;;;27.36;76.04
44992;BME280;56865;51.618;7.406;2022-09-09T10:15:24;100111.91;;;27.29;75.02
44992;BME280;56865;51.618;7.406;2022-09-09T10:18:04;100116.94;;;27.67;75.41
44992;BME280;56865;51.618;7.406;2022-09-09T10:20:39;100117.00;;;27.99;74.16
44992;BME280;56865;51.618;7.406;2022-09-09T10:23:15;100106.75;;;27.94;75.19
44992;BME280;56865;51.618;7.406;2022-09-09T10:25:55;100112.66;;;27.82;72.92
44992;BME280;56865;51.618;7.406;2022-09-09T10:28:33;100117.72;;;27.69;72.66
44992;BME280;56865;51.618;7.406;2022-09-09T10:31:14;100109.47;;;28.09;72.79
44992;BME280;56865;51.618;7.406;2022-09-09T10:33:51;100115.22;;;28.31;71.52
44992;BME280;56865;51.618;7.406;2022-09-09T10:36:21;100104.81;;;28.14;70.02
44992;BME280;56865;51.618;7.406;2022-09-09T10:38:52;100105.41;;;28.03;69.53
44992;BME280;56865;51.618;7.406;2022-09-09T10:41:30;100114.38;;;27.99;70.53
44992;BME280;56865;51.618;7.406;2022-09-09T10:44:05;100100.50;;;28.29;69.78
44992;BME280;56865;51.618;7.406;2022-09-09T10:46:40;100109.84;;;28.65;70.00
44992;BME280;56865;51.618;7.406;2022-09-09T10:49:20;100109.94;;;28.79;68.16
44992;BME280;56865;51.618;7.406;2022-09-09T10:51:58;100101.28;;;28.31;68.81
44992;BME280;56865;51.618;7.406;2022-09-09T10:54:38;100102.84;;;28.96;67.21
44992;BME280;56865;51.618;7.406;2022-09-09T10:57:10;100105.75;;;28.91;66.29
44992;BME280;56865;51.618;7.406;2022-09-09T10:59:43;100100.88;;;29.30;66.63
44992;BME280;56865;51.618;7.406;2022-09-09T11:02:16;100095.16;;;29.38;66.25
44992;BME280;56865;51.618;7.406;2022-09-09T11:04:51;100108.38;;;29.36;63.96
44992;BME280;56865;51.618;7.406;2022-09-09T11:07:25;100108.75;;;29.44;65.09
44992;BME280;56865;51.618;7.406;2022-09-09T11:09:58;100102.81;;;29.70;60.87
44992;BME280;56865;51.618;7.406;2022-09-09T11:12:33;100110.81;;;29.82;59.91
44992;BME280;56865;51.618;7.406;2022-09-09T11:15:12;100093.56;;;29.93;58.76
44992;BME280;56865;51.618;7.406;2022-09-09T11:17:44;100094.28;;;29.66;57.90
44992;BME280;56865;51.618;7.406;2022-09-09T11:20:19;100095.06;;;30.24;56.32
44992;BME280;56865;51.618;7.406;2022-09-09T11:22:50;100119.81;;;30.49;57.54
44992;BME280;56865;51.618;7.406;2022-09-09T11:25:23;100106.25;;;31.08;56.15
44992;BME280;56865;51.618;7.406;2022-09-09T11:27:58;100104.91;;;30.75;53.33
44992;BME280;56865;51.618;7.406;2022-09-09T11:30:34;100107.44;;;30.22;54.38
44992;BME280;56865;51.618;7.406;2022-09-09T11:33:29;100098.56;;;30.52;55.56
44992;BME280;56865;51.618;7.406;2022-09-09T11:36:16;100099.22;;;30.69;53.61
44992;BME280;56865;51.618;7.406;2022-09-09T11:38:54;100099.59;;;30.35;53.16
44992;BME280;56865;51.618;7.406;2022-09-09T11:41:32;100093.00;;;30.42;55.38
44992;BME280;56865;51.618;7.406;2022-09-09T11:44:09;100101.13;;;30.39;55.34
44992;BME280;56865;51.618;7.406;2022-09-09T11:46:40;100094.19;;;29.96;54.35
44992;BME280;56865;51.618;7.406;2022-09-09T11:49:25;100096.34;;;29.90;54.80
44992;BME280;56865;51.618;7.406;2022-09-09T11:51:58;100086.03;;;29.87;56.09
44992;BME280;56865;51.618;7.406;2022-09-09T11:54:31;100084.91;;;30.73;55.91
44992;BME280;56865;51.618;7.406;2022-09-09T11:57:01;100088.63;;;30.96;53.76
44992;BME280;56865;51.618;7.406;2022-09-09T11:59:31;100085.25;;;30.94;51.66
44992;BME280;56865;51.618;7.406;2022-09-09T12:02:02;100084.81;;;30.74;52.69
44992;BME280;56865;51.618;7.406;2022-09-09T12:04:35;100074.84;;;30.92;53.58
44992;BME280;56865;51.618;7.406;2022-09-09T12:09:55;100077.09;;;30.31;53.45
44992;BME280;56865;51.618;7.406;2022-09-09T12:12:28;100083.22;;;29.90;56.05
44992;BME280;56865;51.618;7.406;2022-09-09T12:15:16;100089.59;;;29.86;54.20
44992;BME280;56865;51.618;7.406;2022-09-09T12:17:47;100086.50;;;29.64;54.85
44992;BME280;56865;51.618;7.406;2022-09-09T12:20:19;100084.38;;;30.13;54.66
44992;BME280;56865;51.618;7.406;2022-09-09T12:22:56;100084.06;;;30.59;55.22
44992;BME280;56865;51.618;7.406;2022-09-09T12:25:35;100081.34;;;29.77;54.36
44992;BME280;56865;51.618;7.406;2022-09-09T12:28:14;100090.44;;;30.01;55.72
44992;BME280;56865;51.618;7.406;2022-09-09T12:30:47;100095.72;;;29.57;55.22
44992;BME280;56865;51.618;7.406;2022-09-09T12:33:19;100099.66;;;29.35;56.89
44992;BME280;56865;51.618;7.406;2022-09-09T12:35:51;100108.03;;;28.67;67.51
44992;BME280;56865;51.618;7.406;2022-09-09T12:38:25;100104.59;;;28.65;84.35
44992;BME280;56865;51.618;7.406;2022-09-09T12:41:02;100102.28;;;28.12;81.43
44992;BME280;56865;51.618;7.406;2022-09-09T12:43:32;100103.16;;;27.63;82.55
44992;BME280;56865;51.618;7.406;2022-09-09T12:46:03;100109.94;;;27.67;77.76
44992;BME280;56865;51.618;7.406;2022-09-09T12:48:37;100105.56;;;28.00;79.48
44992;BME280;56865;51.618;7.406;2022-09-09T12:51:16;100107.00;;;27.89;77.34
44992;BME280;56865;51.618;7.406;2022-09-09T12:53:46;100095.44;;;28.42;79.16
44992;BME280;56865;51.618;7.406;2022-09-09T12:56:22;100095.75;;;28.51;77.59
44992;BME280;56865;51.618;7.406;2022-09-09T12:58:53;100098.78;;;28.76;78.90
44992;BME280;56865;51.618;7.406;2022-09-09T13:01:25;100098.13;;;28.40;76.66
44992;BME280;56865;51.618;7.406;2022-09-09T13:03:55;100108.81;;;28.05;75.35
44992;BME280;56865;51.618;7.406;2022-09-09T13:06:26;100103.69;;;27.86;76.24
44992;BME280;56865;51.618;7.406;2022-09-09T13:08:57;100095.91;;;27.68;76.19
44992;BME280;56865;51.618;7.406;2022-09-09T13:11:30;100099.78;;;27.77;75.58
44992;BME280;56865;51.618;7.406;2022-09-09T13:14:02;100093.22;;;28.02;78.25
44992;BME280;56865;51.618;7.406;2022-09-09T13:16:34;100089.34;;;27.93;76.72